createdAt,value
2023-03-31T00:00:40.144Z,0.00
2023-03-31T00:01:40.136Z,0.00
2023-03-31T00:02:40.205Z,0.00
2023-03-31T00:03:40.214Z,0.00
2023-03-31T00:04:40.134Z,0.00
2023-03-31T00:05:40.094Z,0.00
2023-03-31T00:06:40.102Z,0.00
2023-03-31T00:07:40.075Z,0.00
2023-03-31T00:08:40.102Z,0.00
2023-03-31T00:09:40.053Z,0.00
2023-03-31T00:10:40.036Z,0.00
2023-03-31T00:11:40.048Z,0.00
2023-03-31T00:12:40.051Z,0.00
2023-03-31T00:13:40.028Z,0.00
2023-03-31T00:14:40.021Z,0.00
2023-03-31T00:15:39.994Z,0.00
2023-03-31T00:16:40.022Z,0.00
2023-03-31T00:17:40.104Z,0.00
2023-03-31T00:18:39.969Z,0.00
2023-03-31T00:19:40.001Z,0.00
2023-03-31T00:20:39.943Z,0.00
2023-03-31T00:21:39.924Z,0.00
2023-03-31T00:22:39.932Z,0.00
2023-03-31T00:23:39.974Z,0.00
2023-03-31T00:24:39.882Z,0.00
2023-03-31T00:25:39.873Z,0.00
2023-03-31T00:26:39.871Z,0.00
2023-03-31T00:27:39.848Z,0.00
2023-03-31T00:28:39.853Z,0.00
2023-03-31T00:29:39.864Z,0.00
2023-03-31T00:30:39.863Z,0.00
2023-03-31T00:31:39.828Z,0.00
2023-03-31T00:32:39.857Z,0.00
2023-03-31T00:33:39.780Z,0.00
2023-03-31T00:34:39.796Z,0.00
2023-03-31T00:35:39.801Z,0.00
2023-03-31T00:36:39.757Z,0.00
2023-03-31T00:37:39.738Z,0.00
2023-03-31T00:38:39.736Z,0.00
2023-03-31T00:39:39.721Z,0.00
2023-03-31T00:40:39.722Z,0.00
2023-03-31T00:41:39.703Z,0.00
2023-03-31T00:42:39.701Z,0.00
2023-03-31T00:43:39.700Z,0.00
2023-03-31T00:44:39.679Z,0.00
2023-03-31T00:45:39.704Z,0.00
2023-03-31T00:46:39.672Z,0.00
2023-03-31T00:47:39.674Z,0.00
2023-03-31T00:48:39.635Z,0.00
2023-03-31T00:49:39.644Z,0.00
2023-03-31T00:50:39.623Z,0.00
2023-03-31T00:51:39.593Z,0.00
2023-03-31T00:52:39.582Z,0.00
2023-03-31T00:53:39.576Z,0.00
2023-03-31T00:54:39.578Z,0.00
2023-03-31T00:55:39.575Z,0.00
2023-03-31T00:56:39.623Z,0.00
2023-03-31T00:57:39.670Z,0.00
2023-03-31T00:58:39.524Z,0.00
2023-03-31T00:59:39.510Z,0.00
2023-03-31T01:00:39.495Z,0.00
2023-03-31T01:01:39.680Z,0.00
2023-03-31T01:02:39.538Z,0.00
2023-03-31T01:03:39.524Z,0.00
2023-03-31T01:04:39.455Z,0.00
2023-03-31T01:05:39.456Z,0.00
2023-03-31T01:06:39.457Z,0.00
2023-03-31T01:07:39.465Z,0.00
2023-03-31T01:08:39.413Z,0.00
2023-03-31T01:09:39.418Z,0.00
2023-03-31T01:10:39.412Z,0.00
2023-03-31T01:11:39.390Z,0.00
2023-03-31T01:12:39.399Z,0.00
2023-03-31T01:13:39.407Z,0.00
2023-03-31T01:14:39.380Z,0.00
2023-03-31T01:15:39.353Z,0.00
2023-03-31T01:16:39.438Z,0.00
2023-03-31T01:17:39.415Z,0.00
2023-03-31T01:18:39.377Z,0.00
2023-03-31T01:19:39.313Z,0.00
2023-03-31T01:20:39.338Z,0.00
2023-03-31T01:21:39.314Z,0.00
2023-03-31T01:22:39.275Z,0.00
2023-03-31T01:23:39.255Z,0.00
2023-03-31T01:24:39.263Z,0.00
2023-03-31T01:25:39.252Z,0.00
2023-03-31T01:26:39.240Z,0.00
2023-03-31T01:27:39.230Z,0.00
2023-03-31T01:28:39.216Z,0.00
2023-03-31T01:29:39.189Z,0.00
2023-03-31T01:30:39.186Z,0.00
2023-03-31T01:31:39.245Z,0.00
2023-03-31T01:32:39.238Z,0.00
2023-03-31T01:33:39.160Z,0.00
2023-03-31T01:34:39.158Z,0.00
2023-03-31T01:35:39.227Z,0.00
2023-03-31T01:36:48.658Z,0.00
2023-03-31T01:37:39.106Z,0.00
2023-03-31T01:38:39.109Z,0.00
2023-03-31T01:39:39.285Z,0.00
2023-03-31T01:40:39.086Z,0.00
2023-03-31T01:41:39.061Z,0.00
2023-03-31T01:42:39.045Z,0.00
2023-03-31T01:43:39.046Z,0.00
2023-03-31T01:44:39.036Z,0.00
2023-03-31T01:45:39.030Z,0.00
2023-03-31T01:46:39.025Z,0.00
2023-03-31T01:47:39.017Z,0.00
2023-03-31T01:48:38.998Z,0.00
2023-03-31T01:49:38.995Z,0.00
2023-03-31T01:50:38.986Z,0.00
2023-03-31T01:51:38.981Z,0.00
2023-03-31T01:52:38.952Z,0.00
2023-03-31T01:53:38.958Z,0.00
2023-03-31T01:54:38.918Z,0.00
2023-03-31T01:55:38.910Z,0.00
2023-03-31T01:56:38.916Z,0.00
2023-03-31T01:57:38.894Z,0.00
2023-03-31T01:58:38.882Z,0.00
2023-03-31T01:59:38.866Z,0.00
2023-03-31T02:00:38.858Z,0.00
2023-03-31T02:01:38.874Z,0.00
2023-03-31T02:02:38.938Z,0.00
2023-03-31T02:03:38.888Z,0.00
2023-03-31T02:04:38.806Z,0.00
2023-03-31T02:05:38.803Z,0.00
2023-03-31T02:06:38.831Z,0.00
2023-03-31T02:07:38.811Z,0.00
2023-03-31T02:08:38.791Z,0.00
2023-03-31T02:09:38.764Z,0.00
2023-03-31T02:10:38.768Z,0.00
2023-03-31T02:11:38.743Z,0.00
2023-03-31T02:12:38.883Z,0.00
2023-03-31T02:13:38.714Z,0.00
2023-03-31T02:14:38.714Z,0.00
2023-03-31T02:15:38.707Z,0.00
2023-03-31T02:16:38.719Z,0.00
2023-03-31T02:17:38.702Z,0.00
2023-03-31T02:18:38.661Z,0.00
2023-03-31T02:19:38.646Z,0.00
2023-03-31T02:20:38.662Z,0.00
2023-03-31T02:21:38.660Z,0.00
2023-03-31T02:22:38.661Z,0.00
2023-03-31T02:23:38.632Z,0.00
2023-03-31T02:24:38.632Z,0.00
2023-03-31T02:25:38.599Z,0.00
2023-03-31T02:26:38.581Z,0.00
2023-03-31T02:27:38.615Z,0.00
2023-03-31T02:28:38.594Z,0.00
2023-03-31T02:29:38.546Z,0.00
2023-03-31T02:30:38.543Z,0.00
2023-03-31T02:31:38.576Z,0.00
2023-03-31T02:32:38.598Z,0.00
2023-03-31T02:33:38.526Z,0.00
2023-03-31T02:34:38.509Z,0.00
2023-03-31T02:35:38.551Z,0.00
2023-03-31T02:36:38.591Z,0.00
2023-03-31T02:37:38.481Z,0.00
2023-03-31T02:38:38.485Z,0.00
2023-03-31T02:39:38.532Z,0.00
2023-03-31T02:40:38.440Z,0.00
2023-03-31T02:41:38.422Z,0.00
2023-03-31T02:42:38.430Z,0.00
2023-03-31T02:43:38.426Z,0.00
2023-03-31T02:44:38.410Z,0.00
2023-03-31T02:45:38.480Z,0.00
2023-03-31T02:46:38.389Z,0.00
2023-03-31T02:47:38.369Z,0.00
2023-03-31T02:48:38.403Z,0.00
2023-03-31T02:49:38.339Z,0.00
2023-03-31T02:50:38.341Z,0.00
2023-03-31T02:51:38.316Z,0.00
2023-03-31T02:52:38.293Z,0.00
2023-03-31T02:53:38.302Z,0.00
2023-03-31T02:54:38.371Z,0.00
2023-03-31T02:55:38.279Z,0.00
2023-03-31T02:56:38.274Z,0.00
2023-03-31T02:57:38.250Z,0.00
2023-03-31T02:58:38.233Z,0.00
2023-03-31T02:59:38.250Z,0.00
2023-03-31T03:00:38.219Z,0.00
2023-03-31T03:01:38.293Z,0.00
2023-03-31T03:02:38.337Z,0.00
2023-03-31T03:03:38.245Z,0.00
2023-03-31T03:04:38.185Z,0.00
2023-03-31T03:05:38.206Z,0.00
2023-03-31T03:06:38.183Z,0.00
2023-03-31T03:07:38.166Z,0.00
2023-03-31T03:08:38.161Z,0.00
2023-03-31T03:09:38.122Z,0.00
2023-03-31T03:10:38.132Z,0.00
2023-03-31T03:11:38.112Z,0.00
2023-03-31T03:12:38.134Z,0.00
2023-03-31T03:13:38.099Z,0.00
2023-03-31T03:14:38.078Z,0.00
2023-03-31T03:15:38.061Z,0.00
2023-03-31T03:16:38.070Z,0.00
2023-03-31T03:17:38.136Z,0.00
2023-03-31T03:18:38.028Z,0.00
2023-03-31T03:19:38.027Z,0.00
2023-03-31T03:20:38.001Z,0.00
2023-03-31T03:21:37.997Z,0.00
2023-03-31T03:22:38.005Z,0.00
2023-03-31T03:23:37.989Z,0.00
2023-03-31T03:24:37.978Z,0.00
2023-03-31T03:25:37.961Z,0.00
2023-03-31T03:26:37.959Z,0.00
2023-03-31T03:27:37.936Z,0.00
2023-03-31T03:28:37.946Z,0.00
2023-03-31T03:29:37.915Z,0.00
2023-03-31T03:30:37.913Z,0.00
2023-03-31T03:31:37.895Z,0.00
2023-03-31T03:32:37.926Z,0.00
2023-03-31T03:33:37.873Z,0.00
2023-03-31T03:34:37.867Z,0.00
2023-03-31T03:35:37.888Z,0.00
2023-03-31T03:36:37.906Z,0.00
2023-03-31T03:37:37.823Z,0.00
2023-03-31T03:38:37.811Z,0.00
2023-03-31T03:39:37.823Z,0.00
2023-03-31T03:40:37.794Z,0.00
2023-03-31T03:41:37.782Z,0.00
2023-03-31T03:42:37.783Z,0.00
2023-03-31T03:43:37.777Z,0.00
2023-03-31T03:44:37.771Z,0.00
2023-03-31T03:45:37.766Z,0.00
2023-03-31T03:46:37.761Z,0.00
2023-03-31T03:47:37.846Z,0.00
2023-03-31T03:48:37.735Z,0.00
2023-03-31T03:49:37.709Z,0.00
2023-03-31T03:50:37.687Z,0.00
2023-03-31T03:51:37.691Z,0.00
2023-03-31T03:52:37.691Z,0.00
2023-03-31T03:53:37.652Z,0.00
2023-03-31T03:54:37.678Z,0.00
2023-03-31T03:55:37.635Z,0.00
2023-03-31T03:56:37.620Z,0.00
2023-03-31T03:57:37.605Z,0.00
2023-03-31T03:58:37.619Z,0.00
2023-03-31T03:59:37.624Z,0.00
2023-03-31T04:00:37.582Z,0.00
2023-03-31T04:01:37.691Z,0.00
2023-03-31T04:02:37.807Z,0.00
2023-03-31T04:03:37.547Z,0.00
2023-03-31T04:04:37.578Z,0.00
2023-03-31T04:05:37.559Z,0.00
2023-03-31T04:06:37.509Z,0.00
2023-03-31T04:07:37.521Z,0.00
2023-03-31T04:08:37.494Z,0.00
2023-03-31T04:09:37.475Z,0.00
2023-03-31T04:10:37.473Z,0.00
2023-03-31T04:11:37.478Z,0.00
2023-03-31T04:12:37.458Z,0.00
2023-03-31T04:13:37.432Z,0.00
2023-03-31T04:14:37.445Z,0.00
2023-03-31T04:15:37.424Z,0.00
2023-03-31T04:16:37.475Z,0.00
2023-03-31T04:17:37.446Z,0.00
2023-03-31T04:18:37.383Z,4.00
2023-03-31T04:19:37.386Z,4.00
2023-03-31T04:20:37.354Z,0.00
2023-03-31T04:21:37.339Z,4.00
2023-03-31T04:22:37.339Z,4.00
2023-03-31T04:23:37.370Z,8.00
2023-03-31T04:24:37.348Z,8.00
2023-03-31T04:25:37.312Z,8.00
2023-03-31T04:26:37.289Z,8.00
2023-03-31T04:27:37.291Z,8.00
2023-03-31T04:28:37.287Z,12.00
2023-03-31T04:29:37.294Z,12.00
2023-03-31T04:30:37.284Z,16.00
2023-03-31T04:31:37.271Z,20.00
2023-03-31T04:32:37.257Z,20.00
2023-03-31T04:33:37.221Z,24.00
2023-03-31T04:34:37.221Z,28.00
2023-03-31T04:35:37.230Z,32.00
2023-03-31T04:36:37.182Z,36.00
2023-03-31T04:37:37.170Z,40.00
2023-03-31T04:38:37.173Z,44.00
2023-03-31T04:39:37.171Z,44.00
2023-03-31T04:40:37.146Z,48.00
2023-03-31T04:41:37.126Z,56.00
2023-03-31T04:42:37.126Z,64.00
2023-03-31T04:43:37.108Z,76.00
2023-03-31T04:44:37.141Z,80.00
2023-03-31T04:45:37.120Z,88.00
2023-03-31T04:46:37.106Z,96.00
2023-03-31T04:47:37.180Z,104.00
2023-03-31T04:48:37.074Z,112.00
2023-03-31T04:49:37.045Z,124.00
2023-03-31T04:50:37.038Z,136.00
2023-03-31T04:51:37.056Z,144.00
2023-03-31T04:52:37.010Z,168.00
2023-03-31T04:53:37.025Z,188.00
2023-03-31T04:54:36.984Z,208.00
2023-03-31T04:55:36.986Z,208.00
2023-03-31T04:56:36.977Z,216.00
2023-03-31T04:57:36.954Z,240.00
2023-03-31T04:58:36.948Z,264.00
2023-03-31T04:59:36.951Z,292.00
2023-03-31T05:00:36.937Z,316.00
2023-03-31T05:01:37.044Z,348.00
2023-03-31T05:02:36.960Z,380.00
2023-03-31T05:03:37.013Z,400.00
2023-03-31T05:04:36.918Z,404.00
2023-03-31T05:05:36.877Z,408.00
2023-03-31T05:06:36.875Z,412.00
2023-03-31T05:07:36.869Z,408.00
2023-03-31T05:08:36.839Z,388.00
2023-03-31T05:09:36.832Z,380.00
2023-03-31T05:10:36.836Z,384.00
2023-03-31T05:11:36.818Z,412.00
2023-03-31T05:12:36.813Z,436.00
2023-03-31T05:13:36.807Z,456.00
2023-03-31T05:14:36.802Z,444.00
2023-03-31T05:15:36.795Z,448.00
2023-03-31T05:16:36.912Z,464.00
2023-03-31T05:17:36.786Z,480.00
2023-03-31T05:18:36.762Z,504.00
2023-03-31T05:19:36.739Z,524.00
2023-03-31T05:20:36.753Z,540.00
2023-03-31T05:21:36.718Z,568.00
2023-03-31T05:22:36.737Z,600.00
2023-03-31T05:23:36.687Z,668.00
2023-03-31T05:24:36.678Z,764.00
2023-03-31T05:25:36.680Z,872.00
2023-03-31T05:26:36.664Z,928.00
2023-03-31T05:27:36.648Z,980.00
2023-03-31T05:28:36.644Z,1008.00
2023-03-31T05:29:36.647Z,996.00
2023-03-31T05:30:36.621Z,964.00
2023-03-31T05:31:36.650Z,952.00
2023-03-31T05:32:36.786Z,952.00
2023-03-31T05:33:36.581Z,980.00
2023-03-31T05:34:36.588Z,1032.00
2023-03-31T05:35:36.601Z,1132.00
2023-03-31T05:36:36.550Z,1264.00
2023-03-31T05:37:36.550Z,1364.00
2023-03-31T05:38:36.526Z,1436.00
2023-03-31T05:39:36.518Z,1508.00
2023-03-31T05:40:36.500Z,1632.00
2023-03-31T05:41:36.494Z,1736.00
2023-03-31T05:42:36.491Z,1816.00
2023-03-31T05:43:36.490Z,1968.00
2023-03-31T05:44:36.455Z,2352.00
2023-03-31T05:45:36.450Z,2688.00
2023-03-31T05:46:36.508Z,2796.00
2023-03-31T05:47:36.436Z,2576.00
2023-03-31T05:48:36.436Z,2848.00
2023-03-31T05:49:36.433Z,2484.00
2023-03-31T05:50:36.410Z,2092.00
2023-03-31T05:51:36.380Z,1876.00
2023-03-31T05:52:36.369Z,1644.00
2023-03-31T05:53:36.449Z,1632.00
2023-03-31T05:54:36.363Z,1700.00
2023-03-31T05:55:36.377Z,1968.00
2023-03-31T05:56:36.326Z,2280.00
2023-03-31T05:57:36.323Z,2380.00
2023-03-31T05:58:36.394Z,2408.00
2023-03-31T05:59:36.335Z,2336.00
2023-03-31T06:00:36.320Z,2112.00
2023-03-31T06:01:36.339Z,1752.00
2023-03-31T06:02:36.315Z,1492.00
2023-03-31T06:03:36.304Z,1380.00
2023-03-31T06:04:36.365Z,1284.00
2023-03-31T06:05:36.235Z,1132.00
2023-03-31T06:06:37.713Z,1032.00
2023-03-31T06:07:36.250Z,992.00
2023-03-31T06:08:36.207Z,976.00
2023-03-31T06:09:36.209Z,1024.00
2023-03-31T06:10:36.203Z,1140.00
2023-03-31T06:11:36.186Z,1236.00
2023-03-31T06:12:36.156Z,1384.00
2023-03-31T06:13:36.144Z,1492.00
2023-03-31T06:14:36.164Z,1688.00
2023-03-31T06:15:36.134Z,1748.00
2023-03-31T06:16:36.159Z,1852.00
2023-03-31T06:17:38.360Z,2076.00
2023-03-31T06:18:36.095Z,2340.00
2023-03-31T06:19:36.080Z,2524.00
2023-03-31T06:20:36.119Z,2540.00
2023-03-31T06:21:36.062Z,2484.00
2023-03-31T06:22:36.077Z,2460.00
2023-03-31T06:23:36.048Z,2344.00
2023-03-31T06:24:36.033Z,2260.00
2023-03-31T06:25:49.869Z,2180.00
2023-03-31T06:26:37.014Z,2132.00
2023-03-31T06:27:36.031Z,2016.00
2023-03-31T06:28:35.978Z,1808.00
2023-03-31T06:29:35.962Z,1616.00
2023-03-31T06:30:35.953Z,1400.00
2023-03-31T06:31:36.096Z,1340.00
2023-03-31T06:32:36.009Z,1380.00
2023-03-31T06:33:35.946Z,1468.00
2023-03-31T06:34:35.926Z,1540.00
2023-03-31T06:35:35.940Z,1604.00
2023-03-31T06:36:35.889Z,1700.00
2023-03-31T06:37:35.894Z,1876.00
2023-03-31T06:38:35.900Z,2044.00
2023-03-31T06:39:35.900Z,2116.00
2023-03-31T06:40:35.870Z,2188.00
2023-03-31T06:41:35.913Z,2232.00
2023-03-31T06:42:35.870Z,2300.00
2023-03-31T06:43:35.853Z,2464.00
2023-03-31T06:44:35.832Z,2740.00
2023-03-31T06:45:35.828Z,3052.00
2023-03-31T06:46:35.854Z,3328.00
2023-03-31T06:47:35.812Z,3540.00
2023-03-31T06:48:35.765Z,3608.00
2023-03-31T06:49:35.758Z,3552.00
2023-03-31T06:50:35.745Z,3492.00
2023-03-31T06:51:35.747Z,3384.00
2023-03-31T06:52:35.727Z,3196.00
2023-03-31T06:53:36.618Z,2744.00
2023-03-31T06:54:38.207Z,2704.00
2023-03-31T06:55:35.713Z,2832.00
2023-03-31T06:56:36.204Z,2716.00
2023-03-31T06:57:35.676Z,2796.00
2023-03-31T06:58:35.744Z,3136.00
2023-03-31T06:59:35.735Z,3396.00
2023-03-31T07:00:36.200Z,3576.00
2023-03-31T07:01:36.403Z,3828.00
2023-03-31T07:02:35.829Z,4256.00
2023-03-31T07:03:35.819Z,4768.00
2023-03-31T07:04:35.596Z,5412.00
2023-03-31T07:05:35.589Z,5976.00
2023-03-31T07:06:35.590Z,6200.00
2023-03-31T07:07:35.585Z,6088.00
2023-03-31T07:08:35.564Z,5116.00
2023-03-31T07:09:35.524Z,4668.00
2023-03-31T07:10:35.545Z,4236.00
2023-03-31T07:11:36.344Z,4364.00
2023-03-31T07:12:35.681Z,4532.00
2023-03-31T07:13:36.641Z,4860.00
2023-03-31T07:14:35.482Z,5144.00
2023-03-31T07:15:35.461Z,5328.00
2023-03-31T07:16:35.489Z,5356.00
2023-03-31T07:17:35.596Z,5612.00
2023-03-31T07:18:35.687Z,5416.00
2023-03-31T07:19:36.209Z,5112.00
2023-03-31T07:20:35.471Z,4972.00
2023-03-31T07:21:35.443Z,5192.00
2023-03-31T07:22:35.422Z,5232.00
2023-03-31T07:23:35.466Z,5480.00
2023-03-31T07:24:35.392Z,5560.00
2023-03-31T07:25:35.384Z,5500.00
2023-03-31T07:26:35.434Z,5780.00
2023-03-31T07:27:35.340Z,6180.00
2023-03-31T07:28:35.394Z,6476.00
2023-03-31T07:29:35.365Z,6372.00
2023-03-31T07:30:35.315Z,6292.00
2023-03-31T07:31:35.398Z,6376.00
2023-03-31T07:32:37.913Z,6320.00
2023-03-31T07:33:35.513Z,6272.00
2023-03-31T07:34:37.531Z,6336.00
2023-03-31T07:35:35.331Z,5792.00
2023-03-31T07:36:35.264Z,5476.00
2023-03-31T07:37:35.264Z,5456.00
2023-03-31T07:38:35.214Z,5484.00
2023-03-31T07:39:35.247Z,5608.00
2023-03-31T07:40:35.225Z,5564.00
2023-03-31T07:41:35.280Z,5700.00
2023-03-31T07:42:35.202Z,5948.00
2023-03-31T07:43:36.251Z,6088.00
2023-03-31T07:44:35.358Z,6144.00
2023-03-31T07:45:35.258Z,6284.00
2023-03-31T07:46:35.162Z,6340.00
2023-03-31T07:47:35.151Z,6212.00
2023-03-31T07:48:35.117Z,6376.00
2023-03-31T07:49:35.114Z,6316.00
2023-03-31T07:50:35.102Z,6580.00
2023-03-31T07:51:35.079Z,6868.00
2023-03-31T07:52:35.095Z,7368.00
2023-03-31T07:53:35.068Z,8040.00
2023-03-31T07:54:35.041Z,8560.00
2023-03-31T07:55:35.036Z,9744.00
2023-03-31T07:56:35.029Z,10168.00
2023-03-31T07:57:35.045Z,9760.00
2023-03-31T07:58:35.040Z,8764.00
2023-03-31T07:59:34.996Z,8404.00
2023-03-31T08:00:34.978Z,8428.00
2023-03-31T08:01:35.011Z,7632.00
2023-03-31T08:02:35.024Z,7944.00
2023-03-31T08:03:35.042Z,9164.00
2023-03-31T08:04:35.005Z,10516.00
2023-03-31T08:05:34.935Z,9376.00
2023-03-31T08:06:34.932Z,8636.00
2023-03-31T08:07:34.949Z,7788.00
2023-03-31T08:08:34.899Z,7484.00
2023-03-31T08:09:34.879Z,7408.00
2023-03-31T08:10:34.883Z,7528.00
2023-03-31T08:11:34.861Z,7916.00
2023-03-31T08:12:34.841Z,8220.00
2023-03-31T08:13:34.843Z,8740.00
2023-03-31T08:14:40.522Z,9460.00
2023-03-31T08:15:35.827Z,9736.00
2023-03-31T08:16:34.817Z,9956.00
2023-03-31T08:17:34.845Z,9896.00
2023-03-31T08:18:34.780Z,9564.00
2023-03-31T08:19:34.777Z,9380.00
2023-03-31T08:20:34.751Z,9268.00
2023-03-31T08:21:34.753Z,8940.00
2023-03-31T08:22:34.738Z,8500.00
2023-03-31T08:23:34.753Z,9116.00
2023-03-31T08:24:34.737Z,8968.00
2023-03-31T08:25:34.693Z,9060.00
2023-03-31T08:26:34.683Z,10100.00
2023-03-31T08:27:34.692Z,10196.00
2023-03-31T08:28:34.667Z,10980.00
2023-03-31T08:29:34.650Z,10788.00
2023-03-31T08:30:34.694Z,12744.00
2023-03-31T08:31:34.723Z,12444.00
2023-03-31T08:32:34.734Z,14560.00
2023-03-31T08:33:34.654Z,14808.00
2023-03-31T08:34:34.609Z,15784.00
2023-03-31T08:35:34.610Z,18016.00
2023-03-31T08:36:34.579Z,19072.00
2023-03-31T08:37:34.572Z,19008.00
2023-03-31T08:38:34.564Z,17440.00
2023-03-31T08:39:34.588Z,16480.00
2023-03-31T08:40:34.555Z,12172.00
2023-03-31T08:41:34.540Z,16352.00
2023-03-31T08:42:34.527Z,13636.00
2023-03-31T08:43:34.515Z,19168.00
2023-03-31T08:44:34.512Z,19360.00
2023-03-31T08:45:34.580Z,17760.00
2023-03-31T08:46:34.608Z,17824.00
2023-03-31T08:47:34.534Z,17440.00
2023-03-31T08:48:34.454Z,13132.00
2023-03-31T08:49:34.452Z,14648.00
2023-03-31T08:50:34.443Z,8680.00
2023-03-31T08:51:34.421Z,7236.00
2023-03-31T08:52:34.425Z,8056.00
2023-03-31T08:53:34.402Z,8956.00
2023-03-31T08:54:34.431Z,11980.00
2023-03-31T08:55:34.444Z,31616.00
2023-03-31T08:56:34.369Z,10824.00
2023-03-31T08:57:34.391Z,12356.00
2023-03-31T08:58:34.338Z,34272.00
2023-03-31T08:59:34.341Z,30752.00
2023-03-31T09:00:34.323Z,16512.00
2023-03-31T09:01:47.928Z,59328.00
2023-03-31T09:02:35.565Z,12492.00
2023-03-31T09:03:34.423Z,19008.00
2023-03-31T09:04:34.290Z,11492.00
2023-03-31T09:05:34.283Z,12452.00
2023-03-31T09:06:34.287Z,10340.00
2023-03-31T09:07:34.268Z,7872.00
2023-03-31T09:08:34.234Z,10024.00
2023-03-31T09:09:34.227Z,14368.00
2023-03-31T09:10:34.213Z,31392.00
2023-03-31T09:11:34.216Z,54048.00
2023-03-31T09:12:34.231Z,47200.00
2023-03-31T09:13:34.180Z,27424.00
2023-03-31T09:14:34.177Z,64160.00
2023-03-31T09:15:34.166Z,54368.00
2023-03-31T09:16:34.197Z,79712.00
2023-03-31T09:17:34.219Z,79040.00
2023-03-31T09:18:34.190Z,75936.00
2023-03-31T09:19:34.151Z,76096.00
2023-03-31T09:20:34.142Z,78272.00
2023-03-31T09:21:34.103Z,60832.00
2023-03-31T09:22:34.080Z,51104.00
2023-03-31T09:23:34.096Z,47328.00
2023-03-31T09:24:34.129Z,38592.00
2023-03-31T09:25:34.071Z,25344.00
2023-03-31T09:26:34.052Z,32800.00
2023-03-31T09:27:34.044Z,18144.00
2023-03-31T09:28:34.032Z,49216.00
2023-03-31T09:29:34.028Z,27072.00
2023-03-31T09:30:34.005Z,22592.00
2023-03-31T09:31:34.050Z,30336.00
2023-03-31T09:32:34.022Z,13996.00
2023-03-31T09:33:33.993Z,7932.00
2023-03-31T09:34:33.995Z,6568.00
2023-03-31T09:35:34.027Z,7792.00
2023-03-31T09:36:33.950Z,9320.00
2023-03-31T09:37:33.944Z,6832.00
2023-03-31T09:38:33.952Z,5964.00
2023-03-31T09:39:33.918Z,4836.00
2023-03-31T09:40:33.901Z,4904.00
2023-03-31T09:41:34.373Z,3712.00
2023-03-31T09:42:33.887Z,3688.00
2023-03-31T09:43:33.879Z,4696.00
2023-03-31T09:44:33.953Z,7720.00
2023-03-31T09:45:33.849Z,19680.00
2023-03-31T09:46:33.886Z,72544.00
2023-03-31T09:47:33.930Z,11672.00
2023-03-31T09:48:33.826Z,8664.00
2023-03-31T09:49:33.807Z,6428.00
2023-03-31T09:50:33.837Z,6468.00
2023-03-31T09:51:33.791Z,6584.00
2023-03-31T09:52:33.790Z,6448.00
2023-03-31T09:53:33.772Z,6692.00
2023-03-31T09:54:33.797Z,7296.00
2023-03-31T09:55:39.989Z,8328.00
2023-03-31T09:56:34.729Z,7132.00
2023-03-31T09:57:34.373Z,6872.00
2023-03-31T09:58:33.709Z,6700.00
2023-03-31T09:59:33.716Z,6596.00
2023-03-31T10:00:33.701Z,6456.00
2023-03-31T10:01:33.776Z,5312.00
2023-03-31T10:02:33.703Z,6112.00
2023-03-31T10:03:33.679Z,5324.00
2023-03-31T10:04:33.814Z,4280.00
2023-03-31T10:05:33.639Z,3884.00
2023-03-31T10:06:33.660Z,4852.00
2023-03-31T10:07:33.627Z,4520.00
2023-03-31T10:08:33.603Z,3856.00
2023-03-31T10:09:33.636Z,3192.00
2023-03-31T10:10:33.626Z,3400.00
2023-03-31T10:11:33.591Z,2936.00
2023-03-31T10:12:33.562Z,2672.00
2023-03-31T10:13:33.569Z,2488.00
2023-03-31T10:14:33.545Z,2356.00
2023-03-31T10:15:33.541Z,2296.00
2023-03-31T10:16:33.713Z,2404.00
2023-03-31T10:17:43.565Z,2580.00
2023-03-31T10:18:34.625Z,3228.00
2023-03-31T10:19:33.495Z,4052.00
2023-03-31T10:20:33.537Z,5260.00
2023-03-31T10:21:33.489Z,6788.00
2023-03-31T10:22:33.482Z,8384.00
2023-03-31T10:23:33.449Z,8608.00
2023-03-31T10:24:33.437Z,7904.00
2023-03-31T10:25:33.430Z,7084.00
2023-03-31T10:26:33.444Z,6664.00
2023-03-31T10:27:33.404Z,7424.00
2023-03-31T10:28:33.399Z,7404.00
2023-03-31T10:29:33.375Z,8292.00
2023-03-31T10:30:33.372Z,12276.00
2023-03-31T10:31:33.457Z,12336.00
2023-03-31T10:32:33.563Z,12208.00
2023-03-31T10:33:33.347Z,11456.00
2023-03-31T10:34:33.332Z,10020.00
2023-03-31T10:35:33.373Z,9312.00
2023-03-31T10:36:33.320Z,8272.00
2023-03-31T10:37:33.292Z,7520.00
2023-03-31T10:38:33.537Z,6760.00
2023-03-31T10:39:33.263Z,6520.00
2023-03-31T10:40:33.287Z,6644.00
2023-03-31T10:41:33.513Z,6392.00
2023-03-31T10:42:33.283Z,5844.00
2023-03-31T10:43:33.244Z,5124.00
2023-03-31T10:44:33.212Z,4092.00
2023-03-31T10:45:37.929Z,3548.00
2023-03-31T10:46:33.241Z,3420.00
2023-03-31T10:47:33.224Z,3248.00
2023-03-31T10:48:33.179Z,2800.00
2023-03-31T10:49:33.166Z,2824.00
2023-03-31T10:50:33.157Z,3652.00
2023-03-31T10:51:33.133Z,3476.00
2023-03-31T10:52:33.133Z,2476.00
2023-03-31T10:53:33.121Z,2192.00
2023-03-31T10:54:33.173Z,2588.00
2023-03-31T10:55:33.098Z,3092.00
2023-03-31T10:56:33.087Z,3760.00
2023-03-31T10:57:33.088Z,5012.00
2023-03-31T10:58:33.054Z,7524.00
2023-03-31T10:59:33.073Z,9968.00
2023-03-31T11:00:33.047Z,11896.00
2023-03-31T11:01:33.043Z,12392.00
2023-03-31T11:02:33.113Z,12152.00
2023-03-31T11:03:33.145Z,11480.00
2023-03-31T11:04:33.010Z,9984.00
2023-03-31T11:05:33.007Z,9224.00
2023-03-31T11:06:32.983Z,8920.00
2023-03-31T11:07:32.967Z,9532.00
2023-03-31T11:08:32.964Z,9408.00
2023-03-31T11:09:32.938Z,10328.00
2023-03-31T11:10:32.967Z,10712.00
2023-03-31T11:11:32.937Z,11232.00
2023-03-31T11:12:32.913Z,11852.00
2023-03-31T11:13:32.902Z,12580.00
2023-03-31T11:14:32.912Z,12468.00
2023-03-31T11:15:32.939Z,12080.00
2023-03-31T11:16:32.951Z,11340.00
2023-03-31T11:17:32.892Z,11152.00
2023-03-31T11:18:32.868Z,10680.00
2023-03-31T11:19:32.840Z,10720.00
2023-03-31T11:20:32.836Z,10336.00
2023-03-31T11:21:32.810Z,9872.00
2023-03-31T11:22:32.809Z,9388.00
2023-03-31T11:23:32.801Z,8980.00
2023-03-31T11:24:32.823Z,8172.00
2023-03-31T11:25:32.786Z,7204.00
2023-03-31T11:26:32.816Z,6696.00
2023-03-31T11:27:32.764Z,6592.00
2023-03-31T11:28:32.733Z,6644.00
2023-03-31T11:29:32.726Z,6916.00
2023-03-31T11:30:32.720Z,6728.00
2023-03-31T11:31:32.749Z,6100.00
2023-03-31T11:32:32.697Z,5128.00
2023-03-31T11:33:32.679Z,5672.00
2023-03-31T11:34:32.688Z,6912.00
2023-03-31T11:35:32.654Z,6848.00
2023-03-31T11:36:32.682Z,6788.00
2023-03-31T11:37:32.647Z,6400.00
2023-03-31T11:38:32.636Z,6072.00
2023-03-31T11:39:32.624Z,5920.00
2023-03-31T11:40:32.624Z,6212.00
2023-03-31T11:41:32.590Z,6192.00
2023-03-31T11:42:32.633Z,6320.00
2023-03-31T11:43:32.587Z,6304.00
2023-03-31T11:44:32.571Z,6264.00
2023-03-31T11:45:32.565Z,6236.00
2023-03-31T11:46:32.616Z,6304.00
2023-03-31T11:47:32.585Z,6500.00
2023-03-31T11:48:32.531Z,6660.00
2023-03-31T11:49:32.509Z,6900.00
2023-03-31T11:50:32.503Z,7524.00
2023-03-31T11:51:32.484Z,7952.00
2023-03-31T11:52:32.499Z,8016.00
2023-03-31T11:53:32.471Z,7664.00
2023-03-31T11:54:32.476Z,6872.00
2023-03-31T11:55:32.559Z,5876.00
2023-03-31T11:56:32.437Z,4984.00
2023-03-31T11:57:32.498Z,4336.00
2023-03-31T11:58:32.432Z,4364.00
2023-03-31T11:59:32.428Z,3732.00
2023-03-31T12:00:32.402Z,2756.00
2023-03-31T12:01:32.426Z,2080.00
2023-03-31T12:02:32.426Z,1416.00
2023-03-31T12:03:32.387Z,852.00
2023-03-31T12:04:32.348Z,716.00
2023-03-31T12:05:32.436Z,768.00
2023-03-31T12:06:32.347Z,1052.00
2023-03-31T12:07:32.346Z,1412.00
2023-03-31T12:08:32.342Z,2080.00
2023-03-31T12:09:32.307Z,2744.00
2023-03-31T12:10:32.279Z,3100.00
2023-03-31T12:11:32.281Z,3152.00
2023-03-31T12:12:32.317Z,4028.00
2023-03-31T12:13:32.257Z,4520.00
2023-03-31T12:14:32.370Z,5108.00
2023-03-31T12:15:32.273Z,5432.00
2023-03-31T12:16:32.227Z,6496.00
2023-03-31T12:17:32.251Z,7956.00
2023-03-31T12:18:32.192Z,8968.00
2023-03-31T12:19:32.201Z,9140.00
2023-03-31T12:20:32.177Z,8952.00
2023-03-31T12:21:32.166Z,9108.00
2023-03-31T12:22:32.151Z,8932.00
2023-03-31T12:23:32.160Z,8396.00
2023-03-31T12:24:32.293Z,7516.00
2023-03-31T12:25:32.123Z,6704.00
2023-03-31T12:26:32.126Z,6456.00
2023-03-31T12:27:32.102Z,6924.00
2023-03-31T12:28:32.115Z,6404.00
2023-03-31T12:29:32.084Z,6732.00
2023-03-31T12:30:32.095Z,6484.00